sensor_id;sensor_type;location;lat;lon;timestamp;pressure;altitude;pressure_sealevel;temperature;humidity
64679;BME280;51094;53.864;27.676;2023-05-02T00:02:23;99723.84;;;7.11;46.84
64679;BME280;51094;53.864;27.676;2023-05-02T00:04:50;99729.72;;;7.15;45.78
64679;BME280;51094;53.864;27.676;2023-05-02T00:07:17;99723.72;;;7.14;46.24
64679;BME280;51094;53.864;27.676;2023-05-02T00:09:44;99731.53;;;7.13;45.85
64679;BME280;51094;53.864;27.676;2023-05-02T00:12:12;99656.22;;;6.67;45.82
64679;BME280;51094;53.864;27.676;2023-05-02T00:14:38;99724.16;;;7.05;45.53
64679;BME280;51094;53.864;27.676;2023-05-02T00:17:05;99730.63;;;7.14;46.31
64679;BME280;51094;53.864;27.676;2023-05-02T00:19:37;99708.84;;;6.83;45.56
64679;BME280;51094;53.864;27.676;2023-05-02T00:22:07;99732.75;;;7.06;45.96
64679;BME280;51094;53.864;27.676;2023-05-02T00:24:34;99691.81;;;6.79;45.68
64679;BME280;51094;53.864;27.676;2023-05-02T00:27:00;99679.13;;;6.75;45.37
64679;BME280;51094;53.864;27.676;2023-05-02T00:29:27;99664.97;;;6.64;45.64
64679;BME280;51094;53.864;27.676;2023-05-02T00:31:54;99724.78;;;7.10;46.11
64679;BME280;51094;53.864;27.676;2023-05-02T00:34:21;99739.53;;;7.08;46.00
64679;BME280;51094;53.864;27.676;2023-05-02T00:36:48;99710.31;;;6.89;46.22
64679;BME280;51094;53.864;27.676;2023-05-02T00:39:15;99730.84;;;7.09;46.08
64679;BME280;51094;53.864;27.676;2023-05-02T00:41:42;99730.22;;;7.04;46.33
64679;BME280;51094;53.864;27.676;2023-05-02T00:44:08;99711.31;;;6.86;46.33
64679;BME280;51094;53.864;27.676;2023-05-02T00:46:35;99673.28;;;6.52;46.55
64679;BME280;51094;53.864;27.676;2023-05-02T00:49:03;99717.13;;;6.73;47.31
64679;BME280;51094;53.864;27.676;2023-05-02T00:51:33;99685.63;;;6.47;47.56
64679;BME280;51094;53.864;27.676;2023-05-02T00:54:00;99652.81;;;6.30;48.46
64679;BME280;51094;53.864;27.676;2023-05-02T00:56:27;99715.09;;;6.60;48.05
64679;BME280;51094;53.864;27.676;2023-05-02T00:58:54;99662.53;;;6.25;48.84
64679;BME280;51094;53.864;27.676;2023-05-02T01:01:52;99720.22;;;6.62;47.54
64679;BME280;51094;53.864;27.676;2023-05-02T01:04:39;99716.63;;;6.64;47.31
64679;BME280;51094;53.864;27.676;2023-05-02T01:07:18;99719.91;;;6.68;47.62
64679;BME280;51094;53.864;27.676;2023-05-02T01:12:46;99725.94;;;6.68;48.14
64679;BME280;51094;53.864;27.676;2023-05-02T01:15:19;99725.16;;;6.66;47.96
64679;BME280;51094;53.864;27.676;2023-05-02T01:17:49;99664.13;;;6.28;47.78
64679;BME280;51094;53.864;27.676;2023-05-02T01:20:20;99695.72;;;6.52;48.02
64679;BME280;51094;53.864;27.676;2023-05-02T01:22:49;99658.25;;;6.24;48.58
64679;BME280;51094;53.864;27.676;2023-05-02T01:30:44;99722.44;;;6.51;47.98
64679;BME280;51094;53.864;27.676;2023-05-02T01:33:14;99762.88;;;6.52;48.22
64679;BME280;51094;53.864;27.676;2023-05-02T01:35:45;99724.38;;;6.47;48.62
64679;BME280;51094;53.864;27.676;2023-05-02T01:38:17;99699.09;;;6.35;48.73
64679;BME280;51094;53.864;27.676;2023-05-02T01:40:45;99723.47;;;6.48;48.61
64679;BME280;51094;53.864;27.676;2023-05-02T01:43:13;99623.09;;;5.84;48.77
64679;BME280;51094;53.864;27.676;2023-05-02T01:45:43;99516.41;;;5.10;49.42
64679;BME280;51094;53.864;27.676;2023-05-02T01:48:13;99725.00;;;6.33;48.72
64679;BME280;51094;53.864;27.676;2023-05-02T01:50:42;99723.19;;;6.36;49.61
64679;BME280;51094;53.864;27.676;2023-05-02T01:53:10;99706.63;;;6.21;49.24
64679;BME280;51094;53.864;27.676;2023-05-02T01:55:42;99716.69;;;6.27;49.30
64679;BME280;51094;53.864;27.676;2023-05-02T01:58:13;99721.16;;;6.23;49.75
64679;BME280;51094;53.864;27.676;2023-05-02T02:00:41;99714.25;;;6.24;49.32
64679;BME280;51094;53.864;27.676;2023-05-02T02:03:11;99652.53;;;5.80;50.31
64679;BME280;51094;53.864;27.676;2023-05-02T02:05:40;99701.47;;;6.02;50.51
64679;BME280;51094;53.864;27.676;2023-05-02T02:08:07;99712.97;;;6.14;49.53
64679;BME280;51094;53.864;27.676;2023-05-02T02:10:39;99734.19;;;6.20;49.70
64679;BME280;51094;53.864;27.676;2023-05-02T02:13:15;99719.63;;;6.19;50.03
64679;BME280;51094;53.864;27.676;2023-05-02T02:15:46;99707.41;;;6.04;49.03
64679;BME280;51094;53.864;27.676;2023-05-02T02:18:26;99719.41;;;6.05;49.64
64679;BME280;51094;53.864;27.676;2023-05-02T02:20:58;99647.69;;;5.73;49.11
64679;BME280;51094;53.864;27.676;2023-05-02T02:23:25;99716.31;;;6.16;49.21
64679;BME280;51094;53.864;27.676;2023-05-02T02:25:56;99715.63;;;6.12;49.27
64679;BME280;51094;53.864;27.676;2023-05-02T02:28:23;99662.00;;;5.80;49.60
64679;BME280;51094;53.864;27.676;2023-05-02T02:30:50;99679.22;;;5.79;50.48
64679;BME280;51094;53.864;27.676;2023-05-02T02:33:18;99722.97;;;6.03;50.63
64679;BME280;51094;53.864;27.676;2023-05-02T02:35:52;99734.47;;;5.95;50.26
64679;BME280;51094;53.864;27.676;2023-05-02T02:38:40;99712.84;;;5.98;50.07
64679;BME280;51094;53.864;27.676;2023-05-02T02:41:21;99645.97;;;5.54;49.92
64679;BME280;51094;53.864;27.676;2023-05-02T02:47:11;99669.19;;;5.73;50.39
64679;BME280;51094;53.864;27.676;2023-05-02T02:52:52;99721.28;;;6.02;50.85
64679;BME280;51094;53.864;27.676;2023-05-02T02:58:00;99690.66;;;5.74;51.02
64679;BME280;51094;53.864;27.676;2023-05-02T03:00:32;99738.25;;;5.87;50.73
64679;BME280;51094;53.864;27.676;2023-05-02T03:03:00;99740.19;;;5.82;51.13
64679;BME280;51094;53.864;27.676;2023-05-02T03:05:28;99742.66;;;5.85;51.14
64679;BME280;51094;53.864;27.676;2023-05-02T03:07:58;99698.38;;;5.55;51.31
64679;BME280;51094;53.864;27.676;2023-05-02T03:10:25;99744.25;;;5.87;51.54
64679;BME280;51094;53.864;27.676;2023-05-02T03:12:52;99702.03;;;5.69;51.50
64679;BME280;51094;53.864;27.676;2023-05-02T03:18:21;99746.28;;;6.01;50.16
64679;BME280;51094;53.864;27.676;2023-05-02T03:20:48;99728.34;;;5.98;50.60
64679;BME280;51094;53.864;27.676;2023-05-02T03:23:15;99706.06;;;5.75;49.79
64679;BME280;51094;53.864;27.676;2023-05-02T03:25:42;99747.72;;;6.07;50.55
64679;BME280;51094;53.864;27.676;2023-05-02T03:28:12;99587.19;;;5.22;50.17
64679;BME280;51094;53.864;27.676;2023-05-02T03:30:43;99644.84;;;5.60;49.42
64679;BME280;51094;53.864;27.676;2023-05-02T03:33:10;99752.22;;;6.22;49.12
64679;BME280;51094;53.864;27.676;2023-05-02T03:35:41;99742.59;;;6.25;48.92
64679;BME280;51094;53.864;27.676;2023-05-02T03:38:09;99738.13;;;6.29;49.03
64679;BME280;51094;53.864;27.676;2023-05-02T03:40:36;99731.69;;;6.19;49.19
64679;BME280;51094;53.864;27.676;2023-05-02T03:43:07;99699.44;;;6.09;48.48
64679;BME280;51094;53.864;27.676;2023-05-02T03:45:34;99733.50;;;6.36;47.86
64679;BME280;51094;53.864;27.676;2023-05-02T03:48:01;99741.69;;;6.45;48.37
64679;BME280;51094;53.864;27.676;2023-05-02T03:50:29;99737.94;;;6.51;48.42
64679;BME280;51094;53.864;27.676;2023-05-02T03:52:56;99752.19;;;6.59;47.92
64679;BME280;51094;53.864;27.676;2023-05-02T03:55:41;99667.34;;;6.14;47.65
64679;BME280;51094;53.864;27.676;2023-05-02T03:58:13;99743.25;;;6.66;47.35
64679;BME280;51094;53.864;27.676;2023-05-02T04:00:40;99698.34;;;6.50;47.94
64679;BME280;51094;53.864;27.676;2023-05-02T04:03:08;99737.88;;;6.71;47.03
64679;BME280;51094;53.864;27.676;2023-05-02T04:05:42;99736.88;;;6.74;47.31
64679;BME280;51094;53.864;27.676;2023-05-02T04:08:11;99673.13;;;6.38;47.18
64679;BME280;51094;53.864;27.676;2023-05-02T04:10:39;99744.06;;;6.86;47.36
64679;BME280;51094;53.864;27.676;2023-05-02T04:13:08;99741.25;;;6.90;46.79
64679;BME280;51094;53.864;27.676;2023-05-02T04:15:38;99740.34;;;6.91;47.23
64679;BME280;51094;53.864;27.676;2023-05-02T04:18:08;99744.16;;;7.01;46.83
64679;BME280;51094;53.864;27.676;2023-05-02T04:20:43;99714.72;;;6.87;46.48
64679;BME280;51094;53.864;27.676;2023-05-02T04:23:13;99751.47;;;7.11;46.36
64679;BME280;51094;53.864;27.676;2023-05-02T04:25:50;99738.53;;;7.11;46.94
64679;BME280;51094;53.864;27.676;2023-05-02T04:28:22;99697.91;;;6.95;46.92
64679;BME280;51094;53.864;27.676;2023-05-02T04:30:52;99697.47;;;7.05;46.06
64679;BME280;51094;53.864;27.676;2023-05-02T04:33:24;99723.56;;;7.34;46.08
64679;BME280;51094;53.864;27.676;2023-05-02T04:35:55;99743.56;;;7.48;45.72
64679;BME280;51094;53.864;27.676;2023-05-02T04:38:23;99737.38;;;7.51;45.53
64679;BME280;51094;53.864;27.676;2023-05-02T04:40:50;99661.47;;;7.17;45.74
64679;BME280;51094;53.864;27.676;2023-05-02T04:43:23;99715.06;;;7.65;45.60
64679;BME280;51094;53.864;27.676;2023-05-02T04:45:57;99733.06;;;7.84;45.23
64679;BME280;51094;53.864;27.676;2023-05-02T04:48:30;99691.25;;;7.59;45.22
64679;BME280;51094;53.864;27.676;2023-05-02T04:50:59;99710.09;;;7.78;45.31
64679;BME280;51094;53.864;27.676;2023-05-02T04:53:29;99681.34;;;7.67;45.69
64679;BME280;51094;53.864;27.676;2023-05-02T04:55:56;99680.34;;;7.70;44.60
64679;BME280;51094;53.864;27.676;2023-05-02T04:58:23;99717.66;;;7.98;44.98
64679;BME280;51094;53.864;27.676;2023-05-02T05:00:57;99715.09;;;8.14;44.37
64679;BME280;51094;53.864;27.676;2023-05-02T05:03:24;99735.69;;;8.49;44.31
64679;BME280;51094;53.864;27.676;2023-05-02T05:05:51;99727.09;;;8.64;43.16
64679;BME280;51094;53.864;27.676;2023-05-02T05:08:20;99709.25;;;8.74;43.17
64679;BME280;51094;53.864;27.676;2023-05-02T05:10:47;99700.13;;;8.82;42.58
64679;BME280;51094;53.864;27.676;2023-05-02T05:13:15;99731.53;;;9.08;42.18
64679;BME280;51094;53.864;27.676;2023-05-02T05:15:46;99140.06;;;5.60;41.24
64679;BME280;51094;53.864;27.676;2023-05-02T05:18:15;99691.06;;;8.89;41.23
64679;BME280;51094;53.864;27.676;2023-05-02T05:20:45;99707.81;;;9.14;41.17
64679;BME280;51094;53.864;27.676;2023-05-02T05:23:12;99728.44;;;9.31;40.94
64679;BME280;51094;53.864;27.676;2023-05-02T05:25:38;99701.84;;;9.27;40.39
64679;BME280;51094;53.864;27.676;2023-05-02T05:28:06;99717.75;;;9.51;40.42
64679;BME280;51094;53.864;27.676;2023-05-02T05:30:35;99719.59;;;9.63;40.61
64679;BME280;51094;53.864;27.676;2023-05-02T05:33:05;99677.88;;;9.52;40.68
64679;BME280;51094;53.864;27.676;2023-05-02T05:35:37;99654.78;;;9.62;40.42
64679;BME280;51094;53.864;27.676;2023-05-02T05:38:04;99716.81;;;10.09;39.64
64679;BME280;51094;53.864;27.676;2023-05-02T05:40:33;99654.13;;;9.87;39.51
64679;BME280;51094;53.864;27.676;2023-05-02T05:43:00;99650.13;;;9.95;40.25
64679;BME280;51094;53.864;27.676;2023-05-02T05:45:32;99702.28;;;10.48;39.31
64679;BME280;51094;53.864;27.676;2023-05-02T05:47:59;99696.97;;;10.63;39.49
64679;BME280;51094;53.864;27.676;2023-05-02T05:50:29;99699.38;;;10.66;39.52
64679;BME280;51094;53.864;27.676;2023-05-02T05:52:57;99698.88;;;10.74;39.90
64679;BME280;51094;53.864;27.676;2023-05-02T05:55:33;99707.25;;;10.92;39.64
64679;BME280;51094;53.864;27.676;2023-05-02T05:58:03;99695.53;;;11.12;39.79
64679;BME280;51094;53.864;27.676;2023-05-02T06:00:35;99656.19;;;11.04;38.69
64679;BME280;51094;53.864;27.676;2023-05-02T06:03:09;99685.88;;;11.39;38.90
64679;BME280;51094;53.864;27.676;2023-05-02T06:05:38;99500.00;;;10.40;38.10
64679;BME280;51094;53.864;27.676;2023-05-02T06:08:09;99691.53;;;11.58;37.87
64679;BME280;51094;53.864;27.676;2023-05-02T06:10:36;99682.69;;;11.61;37.32
64679;BME280;51094;53.864;27.676;2023-05-02T06:13:06;99630.59;;;11.48;37.92
64679;BME280;51094;53.864;27.676;2023-05-02T06:15:37;99681.22;;;11.95;37.45
64679;BME280;51094;53.864;27.676;2023-05-02T06:18:07;99606.38;;;11.72;37.19
64679;BME280;51094;53.864;27.676;2023-05-02T06:20:35;99602.63;;;11.88;35.62
64679;BME280;51094;53.864;27.676;2023-05-02T06:23:02;99617.41;;;12.24;36.49
64679;BME280;51094;53.864;27.676;2023-05-02T06:25:29;99666.97;;;12.72;36.63
64679;BME280;51094;53.864;27.676;2023-05-02T06:27:58;99665.59;;;12.79;35.81
64679;BME280;51094;53.864;27.676;2023-05-02T06:30:27;99593.78;;;12.39;36.03
64679;BME280;51094;53.864;27.676;2023-05-02T06:32:54;99634.00;;;12.71;34.08
64679;BME280;51094;53.864;27.676;2023-05-02T06:35:21;99634.81;;;12.72;33.38
64679;BME280;51094;53.864;27.676;2023-05-02T06:37:48;99661.25;;;12.91;33.74
64679;BME280;51094;53.864;27.676;2023-05-02T06:40:17;99598.25;;;12.60;33.83
64679;BME280;51094;53.864;27.676;2023-05-02T06:42:44;99581.09;;;12.69;33.66
64679;BME280;51094;53.864;27.676;2023-05-02T06:45:11;99639.38;;;13.16;32.96
64679;BME280;51094;53.864;27.676;2023-05-02T06:47:40;99651.41;;;13.29;33.03
64679;BME280;51094;53.864;27.676;2023-05-02T06:50:07;99637.06;;;13.35;33.00
64679;BME280;51094;53.864;27.676;2023-05-02T06:52:59;99664.59;;;13.50;32.16
64679;BME280;51094;53.864;27.676;2023-05-02T06:55:26;99639.78;;;13.56;32.52
64679;BME280;51094;53.864;27.676;2023-05-02T06:57:54;99635.16;;;13.59;32.59
64679;BME280;51094;53.864;27.676;2023-05-02T07:00:26;99631.97;;;13.67;32.45
64679;BME280;51094;53.864;27.676;2023-05-02T07:02:54;99518.28;;;13.06;32.56
64679;BME280;51094;53.864;27.676;2023-05-02T07:05:22;99544.81;;;13.23;31.75
64679;BME280;51094;53.864;27.676;2023-05-02T07:07:49;99567.22;;;13.48;31.49
64679;BME280;51094;53.864;27.676;2023-05-02T07:10:16;99656.06;;;14.04;31.58
64679;BME280;51094;53.864;27.676;2023-05-02T07:12:53;99665.22;;;13.98;31.58
64679;BME280;51094;53.864;27.676;2023-05-02T07:15:21;99640.50;;;14.03;31.73
64679;BME280;51094;53.864;27.676;2023-05-02T07:17:48;99640.22;;;14.28;32.00
64679;BME280;51094;53.864;27.676;2023-05-02T07:20:15;99645.63;;;14.58;31.13
64679;BME280;51094;53.864;27.676;2023-05-02T07:22:43;99645.63;;;14.58;30.46
64679;BME280;51094;53.864;27.676;2023-05-02T07:25:10;99646.09;;;14.63;30.50
64679;BME280;51094;53.864;27.676;2023-05-02T07:27:37;99635.88;;;14.60;29.89
64679;BME280;51094;53.864;27.676;2023-05-02T07:30:04;99658.94;;;14.55;29.71
64679;BME280;51094;53.864;27.676;2023-05-02T07:32:32;99609.84;;;14.37;30.55
64679;BME280;51094;53.864;27.676;2023-05-02T07:34:59;99639.44;;;14.80;30.46
64679;BME280;51094;53.864;27.676;2023-05-02T07:37:31;99556.41;;;14.29;30.40
64679;BME280;51094;53.864;27.676;2023-05-02T07:40:00;99585.63;;;14.67;30.22
64679;BME280;51094;53.864;27.676;2023-05-02T07:42:29;99567.63;;;14.52;30.76
64679;BME280;51094;53.864;27.676;2023-05-02T07:44:56;99594.31;;;14.88;31.09
64679;BME280;51094;53.864;27.676;2023-05-02T07:47:23;99622.22;;;15.19;30.49
64679;BME280;51094;53.864;27.676;2023-05-02T07:49:53;99630.25;;;15.27;29.21
64679;BME280;51094;53.864;27.676;2023-05-02T07:52:20;99621.81;;;15.14;28.79
64679;BME280;51094;53.864;27.676;2023-05-02T07:54:58;99558.81;;;14.95;30.05
64679;BME280;51094;53.864;27.676;2023-05-02T07:57:25;99597.41;;;15.44;28.88
64679;BME280;51094;53.864;27.676;2023-05-02T07:59:52;99596.75;;;15.52;28.69
64679;BME280;51094;53.864;27.676;2023-05-02T08:02:19;99615.56;;;15.57;27.99
64679;BME280;51094;53.864;27.676;2023-05-02T08:04:49;99562.41;;;15.24;28.07
64679;BME280;51094;53.864;27.676;2023-05-02T08:07:16;99610.72;;;15.62;28.14
64679;BME280;51094;53.864;27.676;2023-05-02T08:09:43;99618.50;;;15.73;28.38
64679;BME280;51094;53.864;27.676;2023-05-02T08:12:10;99576.63;;;15.52;27.55
64679;BME280;51094;53.864;27.676;2023-05-02T08:14:37;99614.75;;;15.66;27.49
64679;BME280;51094;53.864;27.676;2023-05-02T08:17:05;99532.84;;;15.43;27.54
64679;BME280;51094;53.864;27.676;2023-05-02T08:19:34;99588.47;;;15.87;27.16
64679;BME280;51094;53.864;27.676;2023-05-02T08:22:03;99593.75;;;15.96;27.12
64679;BME280;51094;53.864;27.676;2023-05-02T08:24:35;99595.97;;;16.01;27.23
64679;BME280;51094;53.864;27.676;2023-05-02T08:27:02;99593.41;;;16.30;27.31
64679;BME280;51094;53.864;27.676;2023-05-02T08:29:37;99550.31;;;16.33;26.95
64679;BME280;51094;53.864;27.676;2023-05-02T08:32:04;99591.31;;;16.62;26.45
64679;BME280;51094;53.864;27.676;2023-05-02T08:34:31;99532.75;;;16.14;26.19
64679;BME280;51094;53.864;27.676;2023-05-02T08:37:06;99588.44;;;16.66;26.30
64679;BME280;51094;53.864;27.676;2023-05-02T08:39:36;99579.75;;;16.75;26.84
64679;BME280;51094;53.864;27.676;2023-05-02T08:42:06;99590.91;;;16.96;26.35
64679;BME280;51094;53.864;27.676;2023-05-02T08:44:37;99582.78;;;16.80;25.81
64679;BME280;51094;53.864;27.676;2023-05-02T08:47:04;99530.38;;;16.49;27.04
64679;BME280;51094;53.864;27.676;2023-05-02T08:49:33;99578.09;;;16.74;26.35
64679;BME280;51094;53.864;27.676;2023-05-02T08:52:01;99442.72;;;16.04;26.64
64679;BME280;51094;53.864;27.676;2023-05-02T08:54:29;99525.13;;;16.59;25.96
64679;BME280;51094;53.864;27.676;2023-05-02T08:56:58;99580.44;;;16.67;25.37
64679;BME280;51094;53.864;27.676;2023-05-02T08:59:26;99572.94;;;16.53;25.70
64679;BME280;51094;53.864;27.676;2023-05-02T09:01:57;99613.56;;;16.39;25.82
64679;BME280;51094;53.864;27.676;2023-05-02T09:04:30;99555.66;;;16.12;26.25
64679;BME280;51094;53.864;27.676;2023-05-02T09:07:00;99541.03;;;16.19;25.28
64679;BME280;51094;53.864;27.676;2023-05-02T09:09:27;99567.69;;;16.62;25.97
64679;BME280;51094;53.864;27.676;2023-05-02T09:11:56;99544.69;;;17.13;25.48
64679;BME280;51094;53.864;27.676;2023-05-02T09:14:23;99544.56;;;17.42;24.79
64679;BME280;51094;53.864;27.676;2023-05-02T09:16:57;99544.91;;;17.66;24.97
64679;BME280;51094;53.864;27.676;2023-05-02T09:19:26;99521.69;;;17.52;24.35
64679;BME280;51094;53.864;27.676;2023-05-02T09:21:59;99552.13;;;17.54;24.29
64679;BME280;51094;53.864;27.676;2023-05-02T09:24:31;99548.75;;;17.35;23.98
64679;BME280;51094;53.864;27.676;2023-05-02T09:27:03;99538.00;;;17.65;24.39
64679;BME280;51094;53.864;27.676;2023-05-02T09:29:34;99471.84;;;17.60;24.34
64679;BME280;51094;53.864;27.676;2023-05-02T09:32:05;99544.59;;;18.32;23.88
64679;BME280;51094;53.864;27.676;2023-05-02T09:34:36;99470.84;;;17.88;23.43
64679;BME280;51094;53.864;27.676;2023-05-02T09:37:04;99506.50;;;18.18;23.76
64679;BME280;51094;53.864;27.676;2023-05-02T09:39:33;99516.31;;;18.52;22.80
64679;BME280;51094;53.864;27.676;2023-05-02T09:42:02;99501.84;;;18.74;22.75
64679;BME280;51094;53.864;27.676;2023-05-02T09:44:36;99506.72;;;18.60;23.08
64679;BME280;51094;53.864;27.676;2023-05-02T09:47:03;99472.75;;;18.57;23.57
64679;BME280;51094;53.864;27.676;2023-05-02T09:49:40;99442.25;;;18.29;23.00
64679;BME280;51094;53.864;27.676;2023-05-02T09:52:15;99460.63;;;18.65;23.44
64679;BME280;51094;53.864;27.676;2023-05-02T09:54:43;99480.19;;;19.22;22.43
64679;BME280;51094;53.864;27.676;2023-05-02T09:57:12;99468.13;;;19.11;21.75
64679;BME280;51094;53.864;27.676;2023-05-02T09:59:39;99471.81;;;19.26;22.89
64679;BME280;51094;53.864;27.676;2023-05-02T10:02:09;99493.28;;;19.74;21.46
64679;BME280;51094;53.864;27.676;2023-05-02T10:04:38;99452.84;;;19.65;21.68
64679;BME280;51094;53.864;27.676;2023-05-02T10:07:06;99470.47;;;19.56;21.79
64679;BME280;51094;53.864;27.676;2023-05-02T10:09:42;99458.28;;;19.64;22.73
64679;BME280;51094;53.864;27.676;2023-05-02T10:12:13;99484.91;;;20.03;22.76
64679;BME280;51094;53.864;27.676;2023-05-02T10:14:48;99480.00;;;20.40;22.22
64679;BME280;51094;53.864;27.676;2023-05-02T10:17:27;99467.59;;;20.73;21.74
64679;BME280;51094;53.864;27.676;2023-05-02T10:20:04;99470.59;;;20.54;20.65
64679;BME280;51094;53.864;27.676;2023-05-02T10:22:33;99318.28;;;19.41;21.24
64679;BME280;51094;53.864;27.676;2023-05-02T10:25:03;99466.44;;;20.76;20.96
64679;BME280;51094;53.864;27.676;2023-05-02T10:27:36;99465.69;;;21.06;20.91
64679;BME280;51094;53.864;27.676;2023-05-02T10:30:04;99463.47;;;21.65;21.08
64679;BME280;51094;53.864;27.676;2023-05-02T10:32:33;99434.22;;;21.81;20.74
64679;BME280;51094;53.864;27.676;2023-05-02T10:35:05;99463.13;;;22.14;20.10
64679;BME280;51094;53.864;27.676;2023-05-02T10:37:37;99466.34;;;22.47;19.86
64679;BME280;51094;53.864;27.676;2023-05-02T10:40:13;99392.78;;;22.34;19.50
64679;BME280;51094;53.864;27.676;2023-05-02T10:42:48;99417.47;;;22.12;18.98
64679;BME280;51094;53.864;27.676;2023-05-02T10:45:32;99443.72;;;22.21;19.36
64679;BME280;51094;53.864;27.676;2023-05-02T10:48:12;99430.22;;;22.31;19.45
64679;BME280;51094;53.864;27.676;2023-05-02T10:50:55;99431.66;;;22.19;19.45
64679;BME280;51094;53.864;27.676;2023-05-02T10:53:32;99440.34;;;22.28;20.44
64679;BME280;51094;53.864;27.676;2023-05-02T10:56:13;99330.47;;;22.09;18.72
64679;BME280;51094;53.864;27.676;2023-05-02T10:58:43;99437.72;;;22.80;18.40
64679;BME280;51094;53.864;27.676;2023-05-02T11:06:27;99398.78;;;23.88;18.25
64679;BME280;51094;53.864;27.676;2023-05-02T11:11:47;99403.97;;;24.18;17.43
64679;BME280;51094;53.864;27.676;2023-05-02T11:24:53;99406.56;;;25.63;16.51
64679;BME280;51094;53.864;27.676;2023-05-02T11:30:07;99395.69;;;26.96;16.03
64679;BME280;51094;53.864;27.676;2023-05-02T11:35:22;99361.72;;;27.61;14.74
64679;BME280;51094;53.864;27.676;2023-05-02T11:38:05;99372.97;;;27.70;13.45
64679;BME280;51094;53.864;27.676;2023-05-02T11:40:32;99371.88;;;28.70;13.71
64679;BME280;51094;53.864;27.676;2023-05-02T11:43:00;99362.69;;;29.33;12.15
64679;BME280;51094;53.864;27.676;2023-05-02T11:45:37;99344.28;;;30.83;11.53
64679;BME280;51094;53.864;27.676;2023-05-02T11:48:09;99322.94;;;32.12;10.74
64679;BME280;51094;53.864;27.676;2023-05-02T11:53:29;99331.53;;;34.98;9.39
64679;BME280;51094;53.864;27.676;2023-05-02T11:56:00;99329.19;;;36.09;8.29
64679;BME280;51094;53.864;27.676;2023-05-02T11:58:28;99337.66;;;36.87;8.33
64679;BME280;51094;53.864;27.676;2023-05-02T12:00:58;99267.25;;;36.82;8.27
64679;BME280;51094;53.864;27.676;2023-05-02T12:03:30;99333.56;;;38.36;7.85
64679;BME280;51094;53.864;27.676;2023-05-02T12:06:16;99292.28;;;38.57;7.13
64679;BME280;51094;53.864;27.676;2023-05-02T12:08:45;99266.78;;;37.48;7.38
64679;BME280;51094;53.864;27.676;2023-05-02T12:11:13;99299.69;;;36.17;8.46
64679;BME280;51094;53.864;27.676;2023-05-02T12:13:47;99289.75;;;36.82;8.37
64679;BME280;51094;53.864;27.676;2023-05-02T12:16:18;99317.88;;;38.27;7.32
64679;BME280;51094;53.864;27.676;2023-05-02T12:18:46;99309.22;;;38.73;7.29
64679;BME280;51094;53.864;27.676;2023-05-02T12:21:13;99303.66;;;39.21;7.12
64679;BME280;51094;53.864;27.676;2023-05-02T12:23:41;99319.44;;;39.56;7.01
64679;BME280;51094;53.864;27.676;2023-05-02T12:26:22;99284.69;;;37.10;7.69
64679;BME280;51094;53.864;27.676;2023-05-02T12:28:54;99279.94;;;36.27;8.17
64679;BME280;51094;53.864;27.676;2023-05-02T12:31:22;99314.84;;;36.23;7.97
64679;BME280;51094;53.864;27.676;2023-05-02T12:33:49;99288.41;;;35.85;8.68
64679;BME280;51094;53.864;27.676;2023-05-02T12:36:18;99309.75;;;35.66;8.37
64679;BME280;51094;53.864;27.676;2023-05-02T12:38:52;99310.03;;;35.44;9.15
64679;BME280;51094;53.864;27.676;2023-05-02T12:41:37;99183.34;;;34.45;8.67
64679;BME280;51094;53.864;27.676;2023-05-02T12:44:05;99293.81;;;35.85;8.46
64679;BME280;51094;53.864;27.676;2023-05-02T12:46:33;99296.50;;;33.13;9.64
64679;BME280;51094;53.864;27.676;2023-05-02T12:49:07;99303.88;;;32.30;10.34
64679;BME280;51094;53.864;27.676;2023-05-02T12:51:35;99248.09;;;32.26;10.66
64679;BME280;51094;53.864;27.676;2023-05-02T12:54:03;99299.56;;;31.62;10.65
64679;BME280;51094;53.864;27.676;2023-05-02T12:56:38;99271.69;;;29.68;12.19
64679;BME280;51094;53.864;27.676;2023-05-02T12:59:06;99256.81;;;29.84;12.26
64679;BME280;51094;53.864;27.676;2023-05-02T13:01:34;99273.41;;;31.41;11.38
64679;BME280;51094;53.864;27.676;2023-05-02T13:04:02;99258.50;;;31.33;11.57
64679;BME280;51094;53.864;27.676;2023-05-02T13:06:29;99277.38;;;31.22;11.60
64679;BME280;51094;53.864;27.676;2023-05-02T13:08:59;99267.16;;;30.78;11.80
64679;BME280;51094;53.864;27.676;2023-05-02T13:11:26;99288.00;;;30.60;12.03
64679;BME280;51094;53.864;27.676;2023-05-02T13:13:53;99289.13;;;28.14;13.96
64679;BME280;51094;53.864;27.676;2023-05-02T13:16:20;99245.75;;;27.94;14.24
64679;BME280;51094;53.864;27.676;2023-05-02T13:18:47;99238.00;;;27.86;14.37
64679;BME280;51094;53.864;27.676;2023-05-02T13:21:14;99251.13;;;27.37;14.59
64679;BME280;51094;53.864;27.676;2023-05-02T13:23:41;99277.47;;;28.08;15.05
64679;BME280;51094;53.864;27.676;2023-05-02T13:26:10;99255.88;;;29.25;14.02
64679;BME280;51094;53.864;27.676;2023-05-02T13:28:37;99258.19;;;29.98;13.60
64679;BME280;51094;53.864;27.676;2023-05-02T13:31:03;99253.13;;;28.53;14.72
64679;BME280;51094;53.864;27.676;2023-05-02T13:33:35;99261.88;;;26.86;16.10
64679;BME280;51094;53.864;27.676;2023-05-02T13:36:02;99247.28;;;24.79;17.97
64679;BME280;51094;53.864;27.676;2023-05-02T13:38:29;99222.63;;;23.75;19.15
64679;BME280;51094;53.864;27.676;2023-05-02T13:40:56;99264.34;;;23.81;19.51
64679;BME280;51094;53.864;27.676;2023-05-02T13:43:23;99232.78;;;23.01;20.37
64679;BME280;51094;53.864;27.676;2023-05-02T13:45:53;99244.72;;;22.90;20.89
64679;BME280;51094;53.864;27.676;2023-05-02T13:48:19;99230.00;;;22.22;21.12
64679;BME280;51094;53.864;27.676;2023-05-02T13:50:46;99238.44;;;22.62;21.25
64679;BME280;51094;53.864;27.676;2023-05-02T13:53:13;99229.56;;;23.27;20.75
64679;BME280;51094;53.864;27.676;2023-05-02T13:55:40;99252.50;;;23.83;20.33
64679;BME280;51094;53.864;27.676;2023-05-02T13:58:07;99225.00;;;23.63;20.83